createdAt,value
2018-09-10T00:00:43.718Z,95780.39
2018-09-10T00:03:12.375Z,95778.66
2018-09-10T00:05:41.104Z,95777.53
2018-09-10T00:08:09.772Z,95645.14
2018-09-10T00:10:38.518Z,95772.84
2018-09-10T00:13:07.266Z,95773.86
2018-09-10T00:15:35.956Z,95772.98
2018-09-10T00:18:04.775Z,95774.48
2018-09-10T00:20:33.458Z,95770.09
2018-09-10T00:23:02.120Z,95767.59
2018-09-10T00:25:30.778Z,95774.70
2018-09-10T00:27:59.459Z,95771.14
2018-09-10T00:30:28.144Z,95775.97
2018-09-10T00:32:56.784Z,95771.39
2018-09-10T00:35:25.444Z,95775.00
2018-09-10T00:37:54.121Z,95771.20
2018-09-10T00:40:22.753Z,95775.66
2018-09-10T00:42:51.379Z,95771.20
2018-09-10T00:45:20.034Z,95780.69
2018-09-10T00:47:48.704Z,95774.08
2018-09-10T00:50:17.395Z,95780.55
2018-09-10T00:52:46.031Z,95782.20
2018-09-10T00:55:14.675Z,95779.19
2018-09-10T00:57:43.344Z,95779.24
2018-09-10T01:00:12.114Z,95773.22
2018-09-10T01:02:40.825Z,95777.67
2018-09-10T01:05:09.500Z,95774.02
2018-09-10T01:07:38.164Z,95780.17
2018-09-10T01:10:06.856Z,95780.97
2018-09-10T01:12:35.487Z,95779.56
2018-09-10T01:15:04.251Z,95778.70
2018-09-10T01:17:32.913Z,95780.20
2018-09-10T01:20:01.628Z,95778.05
2018-09-10T01:22:30.516Z,95779.47
2018-09-10T01:24:59.202Z,95779.13
2018-09-10T01:27:27.884Z,95780.27
2018-09-10T01:29:56.519Z,95781.86
2018-09-10T01:32:25.221Z,95784.35
2018-09-10T01:34:58.882Z,95788.66
2018-09-10T01:37:27.558Z,95785.81
2018-09-10T01:39:56.530Z,95784.70
2018-09-10T01:42:25.177Z,95791.55
2018-09-10T01:44:53.905Z,95783.73
2018-09-10T01:47:22.597Z,95787.16
2018-09-10T01:49:51.239Z,95782.41
2018-09-10T01:52:19.872Z,95783.84
2018-09-10T01:54:48.511Z,95786.61
2018-09-10T01:57:17.179Z,95784.89
2018-09-10T01:59:45.848Z,95791.89
2018-09-10T02:02:14.584Z,95794.78
2018-09-10T02:04:43.253Z,95794.51
2018-09-10T02:07:12.015Z,95797.02
2018-09-10T02:09:40.674Z,95801.33
2018-09-10T02:12:14.535Z,95797.91
2018-09-10T02:14:43.211Z,95795.09
2018-09-10T02:17:11.955Z,95793.07
2018-09-10T02:19:40.602Z,95785.27
2018-09-10T02:22:09.262Z,95793.14
2018-09-10T02:24:37.923Z,95794.09
2018-09-10T02:27:06.597Z,95757.51
2018-09-10T02:29:35.276Z,95798.20
2018-09-10T02:32:03.971Z,95792.80
2018-09-10T02:34:32.608Z,95797.93
2018-09-10T02:37:01.350Z,95798.50
2018-09-10T02:39:30.024Z,95798.61
2018-09-10T02:41:58.659Z,95793.20
2018-09-10T02:44:27.595Z,95793.36
2018-09-10T02:46:56.230Z,95792.93
2018-09-10T02:49:24.878Z,95793.36
2018-09-10T02:51:53.590Z,95800.09
2018-09-10T02:54:22.274Z,95793.59
2018-09-10T02:56:50.947Z,95795.88
2018-09-10T02:59:19.643Z,95798.51
2018-09-10T03:01:48.440Z,95801.36
2018-09-10T03:04:17.066Z,95809.79
2018-09-10T03:06:45.717Z,95804.02
2018-09-10T03:09:14.356Z,95806.11
2018-09-10T03:11:43.038Z,95806.97
2018-09-10T03:14:11.688Z,95809.45
2018-09-10T03:16:40.321Z,95797.17
2018-09-10T03:19:09.018Z,95807.00
2018-09-10T03:21:37.680Z,95805.58
2018-09-10T03:24:06.560Z,95801.92
2018-09-10T03:26:35.194Z,95803.98
2018-09-10T03:29:03.906Z,95805.18
2018-09-10T03:31:32.616Z,95807.03
2018-09-10T03:34:01.272Z,95801.86
2018-09-10T03:36:30.018Z,95805.28
2018-09-10T03:38:58.706Z,95799.50
2018-09-10T03:41:27.387Z,95802.55
2018-09-10T03:43:56.016Z,95803.25
2018-09-10T03:46:24.696Z,95814.69
2018-09-10T03:48:53.382Z,95812.09
2018-09-10T03:51:22.036Z,95813.70
2018-09-10T03:53:50.690Z,95816.72
2018-09-10T03:56:19.351Z,95820.91
2018-09-10T03:58:48.020Z,95817.32
2018-09-10T04:01:16.675Z,95822.98
2018-09-10T04:03:45.320Z,95821.47
2018-09-10T04:06:13.956Z,95826.39
2018-09-10T04:08:42.621Z,95824.11
2018-09-10T04:11:11.331Z,95825.18
2018-09-10T04:13:40.003Z,95832.39
2018-09-10T04:16:08.657Z,95830.59
2018-09-10T04:18:37.368Z,95827.34
2018-09-10T04:21:06.408Z,95828.11
2018-09-10T04:23:35.068Z,95829.02
2018-09-10T04:26:03.817Z,95822.27
2018-09-10T04:28:32.782Z,95833.03
2018-09-10T04:31:01.438Z,95835.08
2018-09-10T04:33:30.091Z,95834.64
2018-09-10T04:35:58.817Z,95828.49
2018-09-10T04:38:27.577Z,95839.84
2018-09-10T04:40:56.264Z,95835.95
2018-09-10T04:43:25.200Z,95830.08
2018-09-10T04:45:53.826Z,95838.08
2018-09-10T04:48:22.475Z,95832.93
2018-09-10T04:50:51.146Z,95831.34
2018-09-10T04:53:19.827Z,95831.23
2018-09-10T04:55:48.484Z,95832.28
2018-09-10T04:58:17.285Z,95829.36
2018-09-10T05:00:46.058Z,95833.42
2018-09-10T05:03:14.709Z,95835.67
2018-09-10T05:05:43.425Z,95841.87
2018-09-10T05:08:12.100Z,95837.98
2018-09-10T05:10:40.831Z,95838.20
2018-09-10T05:13:09.503Z,95833.16
2018-09-10T05:15:38.156Z,95841.64
2018-09-10T05:18:06.811Z,95828.55
2018-09-10T05:20:35.447Z,95833.88
2018-09-10T05:23:04.220Z,95833.13
2018-09-10T05:25:32.864Z,95823.69
2018-09-10T05:28:01.527Z,95828.91
2018-09-10T05:30:30.179Z,95831.12
2018-09-10T05:32:58.828Z,95827.75
2018-09-10T05:35:27.496Z,95831.13
2018-09-10T05:37:56.212Z,95831.73
2018-09-10T05:40:24.850Z,95827.91
2018-09-10T05:42:53.524Z,95831.89
2018-09-10T05:45:22.271Z,95838.30
2018-09-10T05:47:51.294Z,95836.56
2018-09-10T05:50:19.974Z,95829.52
2018-09-10T05:52:48.620Z,95829.47
2018-09-10T05:55:17.267Z,95827.33
2018-09-10T05:57:45.980Z,95829.29
2018-09-10T06:00:14.709Z,95830.48
2018-09-10T06:02:43.366Z,95839.69
2018-09-10T06:05:12.105Z,95846.44
2018-09-10T06:07:40.795Z,95841.36
2018-09-10T06:10:09.503Z,95840.18
2018-09-10T06:12:38.216Z,95838.24
2018-09-10T06:15:07.826Z,95844.92
2018-09-10T06:17:36.499Z,95853.38
2018-09-10T06:20:05.346Z,95844.36
2018-09-10T06:22:34.008Z,95848.38
2018-09-10T06:25:02.722Z,95845.63
2018-09-10T06:27:31.379Z,95840.91
2018-09-10T06:30:00.093Z,95844.64
2018-09-10T06:32:28.777Z,95849.16
2018-09-10T06:34:57.458Z,95848.15
2018-09-10T06:37:26.118Z,95836.78
2018-09-10T06:39:54.793Z,95844.64
2018-09-10T06:42:23.427Z,95846.16
2018-09-10T06:44:52.075Z,95847.71
2018-09-10T06:47:20.709Z,95838.37
2018-09-10T06:49:49.379Z,95839.13
2018-09-10T06:52:18.090Z,95840.77
2018-09-10T06:54:46.773Z,95850.62
2018-09-10T06:57:15.452Z,95840.27
2018-09-10T06:59:44.174Z,95845.45
2018-09-10T07:02:12.937Z,95845.74
2018-09-10T07:04:41.600Z,95844.17
2018-09-10T07:07:10.272Z,95851.96
2018-09-10T07:09:38.923Z,95846.39
2018-09-10T07:12:07.584Z,95850.16
2018-09-10T07:14:36.228Z,95857.03
2018-09-10T07:17:04.995Z,95865.67
2018-09-10T07:19:33.675Z,95868.59
2018-09-10T07:22:02.500Z,95871.50
2018-09-10T07:24:32.176Z,95867.84
2018-09-10T07:27:00.814Z,95849.25
2018-09-10T07:29:29.458Z,95856.31
2018-09-10T07:31:58.096Z,95850.61
2018-09-10T07:34:26.881Z,95856.34
2018-09-10T07:36:55.550Z,95855.32
2018-09-10T07:39:24.209Z,95854.30
2018-09-10T07:41:52.870Z,95850.55
2018-09-10T07:44:21.632Z,95853.72
2018-09-10T07:46:50.430Z,95857.41
2018-09-10T07:49:19.752Z,95852.02
2018-09-10T07:51:48.426Z,95845.58
2018-09-10T07:54:17.154Z,95858.11
2018-09-10T07:56:45.903Z,95853.27
2018-09-10T07:59:14.645Z,95849.19
2018-09-10T08:01:43.372Z,95849.23
2018-09-10T08:04:12.131Z,95843.83
2018-09-10T08:06:40.868Z,95842.80
2018-09-10T08:09:10.282Z,95847.45
2018-09-10T08:11:38.922Z,95837.84
2018-09-10T08:14:07.776Z,95836.49
2018-09-10T08:16:36.652Z,95838.23
2018-09-10T08:19:05.399Z,95837.45
2018-09-10T08:21:34.444Z,95842.74
2018-09-10T08:24:03.753Z,95830.84
2018-09-10T08:26:32.542Z,95831.73
2018-09-10T08:29:01.183Z,95836.34
2018-09-10T08:31:29.839Z,95831.02
2018-09-10T08:34:01.392Z,95826.11
2018-09-10T08:36:30.073Z,95838.36
2018-09-10T08:38:58.750Z,95835.55
2018-09-10T08:41:27.568Z,95831.94
2018-09-10T08:43:56.313Z,95825.59
2018-09-10T08:46:24.972Z,95819.06
2018-09-10T08:48:53.638Z,95817.24
2018-09-10T08:51:22.361Z,95810.89
2018-09-10T08:53:51.040Z,95819.45
2018-09-10T08:56:19.873Z,95815.15
2018-09-10T08:58:48.366Z,95806.86
2018-09-10T09:01:17.081Z,95805.83
2018-09-10T09:03:45.759Z,95819.59
2018-09-10T09:06:14.509Z,95809.87
2018-09-10T09:08:43.136Z,95819.67
2018-09-10T09:11:11.821Z,95815.52
2018-09-10T09:13:40.505Z,95814.42
2018-09-10T09:16:09.203Z,95807.42
2018-09-10T09:18:37.926Z,95811.64
2018-09-10T09:21:06.720Z,95811.98
2018-09-10T09:23:35.502Z,95811.91
2018-09-10T09:26:04.164Z,95816.58
2018-09-10T09:28:32.822Z,95814.15
2018-09-10T09:31:01.466Z,95811.28
2018-09-10T09:33:30.157Z,95809.50
2018-09-10T09:36:04.057Z,95808.69
2018-09-10T09:38:38.120Z,95802.23
2018-09-10T09:41:12.109Z,95796.26
2018-09-10T09:43:45.977Z,95795.23
2018-09-10T09:46:16.846Z,95796.61
2018-09-10T09:48:46.037Z,95788.02
2018-09-10T09:51:14.735Z,95802.29
2018-09-10T09:53:43.398Z,95798.06
2018-09-10T09:56:12.036Z,95794.68
2018-09-10T09:58:40.722Z,95807.06
2018-09-10T10:01:14.535Z,95812.06
2018-09-10T10:03:48.476Z,95806.55
2018-09-10T10:06:17.267Z,95808.21
2018-09-10T10:08:45.936Z,95800.50
2018-09-10T10:11:14.627Z,95805.75
2018-09-10T10:13:43.302Z,95809.54
2018-09-10T10:16:11.979Z,95801.86
2018-09-10T10:18:40.683Z,95801.36
2018-09-10T10:21:09.422Z,95788.97
2018-09-10T10:23:38.169Z,95786.98
2018-09-10T10:26:06.852Z,95782.06
2018-09-10T10:28:35.596Z,95780.41
2018-09-10T10:31:04.398Z,95774.83
2018-09-10T10:33:33.068Z,95774.50
2018-09-10T10:36:01.802Z,95764.77
2018-09-10T10:38:30.508Z,95773.61
2018-09-10T10:40:59.217Z,95766.52
2018-09-10T10:43:27.881Z,95767.02
2018-09-10T10:45:56.574Z,95773.13
2018-09-10T10:48:25.272Z,95761.91
2018-09-10T10:50:53.924Z,95765.86
2018-09-10T10:53:22.578Z,95756.18
2018-09-10T10:55:51.251Z,95759.75
2018-09-10T10:58:19.947Z,95756.81
2018-09-10T11:00:48.665Z,95757.39
2018-09-10T11:03:17.331Z,95752.84
2018-09-10T11:05:46.033Z,95747.95
2018-09-10T11:08:14.720Z,95756.27
2018-09-10T11:10:43.445Z,95755.79
2018-09-10T11:13:12.119Z,95753.36
2018-09-10T11:15:40.816Z,95751.20
2018-09-10T11:18:09.568Z,95751.80
2018-09-10T11:20:38.225Z,95747.09
2018-09-10T11:23:06.950Z,95736.64
2018-09-10T11:25:35.632Z,95610.20
2018-09-10T11:28:04.312Z,95735.77
2018-09-10T11:30:33.063Z,95739.13
2018-09-10T11:33:01.794Z,95732.11
2018-09-10T11:35:30.487Z,95733.02
2018-09-10T11:37:59.173Z,95720.38
2018-09-10T11:40:28.003Z,95732.30
2018-09-10T11:42:56.651Z,95734.56
2018-09-10T11:45:25.356Z,95729.75
2018-09-10T11:47:54.063Z,95728.38
2018-09-10T11:50:22.735Z,95731.24
2018-09-10T11:52:51.401Z,95732.48
2018-09-10T11:55:20.060Z,95725.30
2018-09-10T11:57:48.725Z,95721.70
2018-09-10T12:00:17.604Z,95719.77
2018-09-10T12:02:46.294Z,95720.95
2018-09-10T12:05:15.001Z,95708.92
2018-09-10T12:07:43.701Z,95709.19
2018-09-10T12:10:12.492Z,95711.39
2018-09-10T12:12:41.182Z,95711.52
2018-09-10T12:15:09.962Z,95710.87
2018-09-10T12:17:38.694Z,95705.48
2018-09-10T12:20:07.457Z,95709.88
2018-09-10T12:22:36.197Z,95700.58
2018-09-10T12:25:05.289Z,95703.91
2018-09-10T12:27:34.849Z,95705.34
2018-09-10T12:30:05.188Z,95704.77
2018-09-10T12:32:33.907Z,95705.65
2018-09-10T12:35:02.578Z,95704.38
2018-09-10T12:37:31.365Z,95702.50
2018-09-10T12:40:00.038Z,95694.30
2018-09-10T12:42:28.857Z,95701.48
2018-09-10T12:44:57.540Z,95699.77
2018-09-10T12:47:26.240Z,95667.95
2018-09-10T12:49:54.884Z,95699.88
2018-09-10T12:52:23.539Z,95698.55
2018-09-10T12:54:52.250Z,95701.63
2018-09-10T12:57:21.034Z,95697.06
2018-09-10T12:59:49.715Z,95690.58
2018-09-10T13:02:18.402Z,95694.35
2018-09-10T13:04:47.080Z,95697.23
2018-09-10T13:07:15.774Z,95698.88
2018-09-10T13:09:44.439Z,95706.95
2018-09-10T13:12:13.098Z,95704.31
2018-09-10T13:14:41.774Z,95554.29
2018-09-10T13:17:10.398Z,95706.61
2018-09-10T13:19:39.079Z,95701.27
2018-09-10T13:22:07.780Z,95694.72
2018-09-10T13:24:36.482Z,95694.36
2018-09-10T13:27:05.176Z,95689.33
2018-09-10T13:29:33.861Z,95696.19
2018-09-10T13:32:02.538Z,95700.69
2018-09-10T13:34:31.217Z,95695.91
2018-09-10T13:36:59.875Z,95696.34
2018-09-10T13:39:28.564Z,95697.80
2018-09-10T13:41:57.206Z,95698.98
2018-09-10T13:44:25.881Z,95696.58
2018-09-10T13:46:54.560Z,95690.94
2018-09-10T13:49:23.345Z,95685.42
2018-09-10T13:51:52.350Z,95682.53
2018-09-10T13:54:21.108Z,95696.11
2018-09-10T13:56:49.785Z,95695.80
2018-09-10T13:59:18.469Z,95695.16
2018-09-10T14:01:47.186Z,95698.32
2018-09-10T14:04:15.841Z,95686.91
2018-09-10T14:06:44.535Z,95694.17
2018-09-10T14:09:13.188Z,95693.58
2018-09-10T14:11:41.874Z,95688.41
2018-09-10T14:14:10.575Z,95691.20
2018-09-10T14:16:39.243Z,95685.28
2018-09-10T14:19:07.956Z,95689.06
2018-09-10T14:21:36.682Z,95696.66
2018-09-10T14:24:05.418Z,95690.16
2018-09-10T14:26:35.091Z,95695.84
2018-09-10T14:29:03.814Z,95695.74
2018-09-10T14:31:32.934Z,95689.82
2018-09-10T14:34:01.623Z,95684.69
2018-09-10T14:36:30.367Z,95696.99
2018-09-10T14:38:59.065Z,95679.23
2018-09-10T14:41:28.017Z,95693.34
2018-09-10T14:43:56.667Z,95697.22
2018-09-10T14:46:25.938Z,95693.54
2018-09-10T14:48:54.675Z,95688.02
2018-09-10T14:51:23.485Z,95685.80
2018-09-10T14:53:52.859Z,95697.06
2018-09-10T14:56:21.563Z,95685.92
2018-09-10T14:58:50.553Z,95698.34
2018-09-10T15:01:19.212Z,95694.10
2018-09-10T15:03:48.006Z,95693.17
2018-09-10T15:06:16.674Z,95695.47
2018-09-10T15:08:45.315Z,95702.37
2018-09-10T15:11:13.994Z,95694.66
2018-09-10T15:13:42.623Z,95699.95
2018-09-10T15:16:11.297Z,95695.45
2018-09-10T15:18:40.122Z,95695.97
2018-09-10T15:21:08.679Z,95698.61
2018-09-10T15:23:37.401Z,95700.55
2018-09-10T15:26:06.198Z,95707.53
2018-09-10T15:28:35.161Z,95693.67
2018-09-10T15:31:03.925Z,95703.11
2018-09-10T15:33:32.635Z,95703.87
2018-09-10T15:36:01.328Z,95711.23
2018-09-10T15:38:29.998Z,95710.47
2018-09-10T15:40:58.651Z,95709.98
2018-09-10T15:43:27.326Z,95710.52
2018-09-10T15:45:55.991Z,95707.45
2018-09-10T15:48:24.732Z,95709.28
2018-09-10T15:50:53.401Z,95715.63
2018-09-10T15:53:22.106Z,95711.55
2018-09-10T15:55:50.811Z,95716.29
2018-09-10T15:58:19.482Z,95716.75
2018-09-10T16:00:48.113Z,95714.27
2018-09-10T16:03:16.878Z,95711.72
2018-09-10T16:05:45.554Z,95711.31
2018-09-10T16:08:14.253Z,95724.55
2018-09-10T16:10:42.931Z,95719.64
2018-09-10T16:13:11.622Z,95722.06
2018-09-10T16:15:40.317Z,95722.88
2018-09-10T16:18:09.101Z,95722.16
2018-09-10T16:20:37.865Z,95729.22
2018-09-10T16:23:06.870Z,95724.17
2018-09-10T16:25:35.592Z,95725.96
2018-09-10T16:28:04.255Z,95724.42
2018-09-10T16:30:32.920Z,95725.45
2018-09-10T16:33:01.671Z,95735.50
2018-09-10T16:35:30.348Z,95735.32
2018-09-10T16:37:59.040Z,95745.54
2018-09-10T16:40:27.750Z,95736.73
2018-09-10T16:42:56.438Z,95739.71
2018-09-10T16:45:25.162Z,95740.91
2018-09-10T16:47:53.863Z,95740.14
2018-09-10T16:50:22.582Z,95745.44
2018-09-10T16:52:51.258Z,95750.14
2018-09-10T16:55:19.947Z,95757.04
2018-09-10T16:57:48.618Z,95764.31
2018-09-10T17:00:17.258Z,95760.00
2018-09-10T17:02:45.932Z,95756.86
2018-09-10T17:05:14.574Z,95762.00
2018-09-10T17:07:43.310Z,95766.52
2018-09-10T17:10:12.020Z,95774.77
2018-09-10T17:12:40.742Z,95774.58
2018-09-10T17:15:10.405Z,95779.88
2018-09-10T17:17:39.133Z,95784.96
2018-09-10T17:20:07.871Z,95781.05
2018-09-10T17:22:36.767Z,95784.19
2018-09-10T17:25:05.461Z,95792.84
2018-09-10T17:27:34.158Z,95805.98
2018-09-10T17:30:02.856Z,95804.59
2018-09-10T17:32:31.599Z,95807.10
2018-09-10T17:35:00.267Z,95805.14
2018-09-10T17:37:28.938Z,95813.77
2018-09-10T17:39:57.619Z,95811.00
2018-09-10T17:42:26.310Z,95813.95
2018-09-10T17:44:55.038Z,95818.84
2018-09-10T17:47:23.731Z,95812.77
2018-09-10T17:49:52.393Z,95822.20
2018-09-10T17:52:21.084Z,95833.59
2018-09-10T17:54:49.791Z,95829.66
2018-09-10T17:57:18.425Z,95834.63
2018-09-10T17:59:47.115Z,95833.27
2018-09-10T18:02:15.982Z,95838.16
2018-09-10T18:04:44.712Z,95834.58
2018-09-10T18:07:13.394Z,95808.17
2018-09-10T18:09:42.066Z,95842.91
2018-09-10T18:12:10.719Z,95844.98
2018-09-10T18:14:39.427Z,95843.98
2018-09-10T18:17:08.074Z,95853.41
2018-09-10T18:19:36.773Z,95849.84
2018-09-10T18:22:05.458Z,95855.44
2018-09-10T18:24:34.123Z,95514.31
2018-09-10T18:27:02.833Z,95853.06
2018-09-10T18:29:31.478Z,95614.87
2018-09-10T18:32:00.115Z,95854.20
2018-09-10T18:34:28.781Z,95852.01
2018-09-10T18:36:57.514Z,95852.36
2018-09-10T18:39:26.163Z,95855.50
2018-09-10T18:41:54.833Z,95858.02
2018-09-10T18:44:23.616Z,95858.78
2018-09-10T18:46:52.240Z,95862.44
2018-09-10T18:49:20.899Z,95860.98
2018-09-10T18:51:49.592Z,95866.81
2018-09-10T18:54:18.269Z,95864.77
2018-09-10T18:56:46.974Z,95867.42
2018-09-10T18:59:15.785Z,95862.89
2018-09-10T19:01:45.104Z,95867.75
2018-09-10T19:04:13.776Z,95868.31
2018-09-10T19:06:42.401Z,95862.37
2018-09-10T19:09:11.925Z,95867.22
2018-09-10T19:11:40.663Z,95873.22
2018-09-10T19:14:09.328Z,95867.32
2018-09-10T19:16:37.985Z,95870.52
2018-09-10T19:19:06.996Z,95877.70
2018-09-10T19:21:35.758Z,95874.95
2018-09-10T19:24:04.439Z,95876.47
2018-09-10T19:26:33.094Z,95880.28
2018-09-10T19:29:01.758Z,95873.80
2018-09-10T19:31:30.465Z,95873.20
2018-09-10T19:33:59.114Z,95877.69
2018-09-10T19:36:27.795Z,95881.38
2018-09-10T19:38:56.502Z,95878.02
2018-09-10T19:41:25.220Z,95884.06
2018-09-10T19:43:53.987Z,95886.46
2018-09-10T19:46:22.650Z,95888.57
2018-09-10T19:48:51.318Z,95893.15
2018-09-10T19:51:20.094Z,95887.21
2018-09-10T19:53:48.730Z,95893.86
2018-09-10T19:56:17.367Z,95891.51
2018-09-10T19:58:46.047Z,95899.09
2018-09-10T20:01:14.737Z,95901.83
2018-09-10T20:03:43.442Z,95901.03
2018-09-10T20:06:12.133Z,95906.28
2018-09-10T20:08:41.151Z,95904.73
2018-09-10T20:11:09.827Z,95902.56
2018-09-10T20:13:38.519Z,95900.78
2018-09-10T20:16:07.286Z,95903.93
2018-09-10T20:18:36.015Z,95901.71
2018-09-10T20:21:05.002Z,95903.41
2018-09-10T20:23:33.684Z,95908.49
2018-09-10T20:26:02.387Z,95899.21
2018-09-10T20:28:31.019Z,95893.48
2018-09-10T20:31:00.095Z,95900.73
2018-09-10T20:33:28.860Z,95901.73
2018-09-10T20:35:58.238Z,95901.31
2018-09-10T20:38:26.895Z,95914.16
2018-09-10T20:40:55.527Z,95909.02
2018-09-10T20:43:24.170Z,95911.75
2018-09-10T20:45:52.825Z,95915.03
2018-09-10T20:48:21.472Z,95913.02
2018-09-10T20:50:50.129Z,95917.51
2018-09-10T20:53:18.862Z,95920.91
2018-09-10T20:55:47.470Z,95914.61
2018-09-10T20:58:16.105Z,95927.45
2018-09-10T21:00:44.784Z,95921.92
2018-09-10T21:03:13.433Z,95919.34
2018-09-10T21:05:42.071Z,95921.02
2018-09-10T21:08:10.754Z,95915.56
2018-09-10T21:10:39.398Z,95919.75
2018-09-10T21:13:08.159Z,95916.19
2018-09-10T21:15:36.815Z,95920.09
2018-09-10T21:18:05.535Z,95921.27
2018-09-10T21:20:34.231Z,95918.27
2018-09-10T21:23:03.437Z,95925.07
2018-09-10T21:25:32.217Z,95917.36
2018-09-10T21:28:00.921Z,95915.28
2018-09-10T21:30:29.538Z,95916.49
2018-09-10T21:32:58.240Z,95914.11
2018-09-10T21:35:26.890Z,95917.78
2018-09-10T21:37:55.507Z,95914.41
2018-09-10T21:40:24.136Z,95909.32
2018-09-10T21:42:52.814Z,95912.84
2018-09-10T21:45:21.437Z,95912.28
2018-09-10T21:47:50.081Z,95912.20
2018-09-10T21:50:18.747Z,95909.42
2018-09-10T21:52:47.387Z,95912.35
2018-09-10T21:55:17.042Z,95913.30
2018-09-10T21:57:45.692Z,95906.84
2018-09-10T22:00:14.455Z,95912.50
2018-09-10T22:02:43.170Z,95912.92
2018-09-10T22:05:11.885Z,95912.01
2018-09-10T22:07:40.591Z,95911.21
2018-09-10T22:10:09.281Z,95917.47
2018-09-10T22:12:37.971Z,95922.93
2018-09-10T22:15:06.658Z,95923.42
2018-09-10T22:17:35.359Z,95917.77
2018-09-10T22:20:04.197Z,95920.27
2018-09-10T22:22:32.925Z,95920.99
2018-09-10T22:25:01.661Z,95925.73
2018-09-10T22:27:30.362Z,95922.16
2018-09-10T22:29:58.989Z,95926.20
2018-09-10T22:32:27.720Z,95919.91
2018-09-10T22:34:56.463Z,95914.97
2018-09-10T22:37:25.138Z,95917.63
2018-09-10T22:39:53.942Z,95924.03
2018-09-10T22:42:23.013Z,95917.19
2018-09-10T22:44:51.800Z,95928.89
2018-09-10T22:47:20.515Z,95920.34
2018-09-10T22:49:49.279Z,95918.20
2018-09-10T22:52:18.000Z,95923.20
2018-09-10T22:54:46.702Z,95923.00
2018-09-10T22:57:15.398Z,95924.51
2018-09-10T22:59:44.060Z,95920.41
2018-09-10T23:02:12.782Z,95920.36
2018-09-10T23:04:41.519Z,95926.98
2018-09-10T23:07:10.165Z,95927.51
2018-09-10T23:09:38.876Z,95927.45
2018-09-10T23:12:07.606Z,95923.62
2018-09-10T23:14:36.289Z,95928.28
2018-09-10T23:17:05.091Z,95921.41
2018-09-10T23:19:33.889Z,95923.51
2018-09-10T23:22:02.591Z,95919.43
2018-09-10T23:24:31.241Z,95918.87
2018-09-10T23:26:59.891Z,95920.98
2018-09-10T23:29:28.611Z,95923.99
2018-09-10T23:31:57.307Z,95919.61
2018-09-10T23:34:25.951Z,95921.38
2018-09-10T23:36:54.631Z,95924.31
2018-09-10T23:39:23.295Z,95919.69
2018-09-10T23:41:51.980Z,95923.44
2018-09-10T23:44:20.721Z,95917.28
2018-09-10T23:46:49.372Z,95918.55
2018-09-10T23:49:18.040Z,95916.52
2018-09-10T23:51:46.786Z,95914.27
2018-09-10T23:54:15.492Z,95917.99
2018-09-10T23:56:44.162Z,95922.45
2018-09-10T23:59:12.812Z,95924.39
